sensor_id;sensor_type;location;lat;lon;timestamp;pressure;altitude;pressure_sealevel;temperature;humidity
74163;BME280;62515;52.758;5.076;2022-12-29T00:02:15;99767.78;;;10.31;100.00
74163;BME280;62515;52.758;5.076;2022-12-29T00:04:44;99754.31;;;10.23;100.00
74163;BME280;62515;52.758;5.076;2022-12-29T00:07:11;99746.16;;;10.15;100.00
74163;BME280;62515;52.758;5.076;2022-12-29T00:09:38;99754.03;;;10.16;100.00
74163;BME280;62515;52.758;5.076;2022-12-29T00:12:05;99746.56;;;10.10;100.00
74163;BME280;62515;52.758;5.076;2022-12-29T00:14:32;99749.22;;;10.10;100.00
74163;BME280;62515;52.758;5.076;2022-12-29T00:17:18;99740.84;;;10.15;100.00
74163;BME280;62515;52.758;5.076;2022-12-29T00:19:46;99751.22;;;10.18;100.00
74163;BME280;62515;52.758;5.076;2022-12-29T00:22:32;99743.00;;;10.21;100.00
74163;BME280;62515;52.758;5.076;2022-12-29T00:25:18;99750.97;;;10.21;100.00
74163;BME280;62515;52.758;5.076;2022-12-29T00:28:04;99743.38;;;10.16;100.00
74163;BME280;62515;52.758;5.076;2022-12-29T00:30:50;99752.25;;;10.06;100.00
74163;BME280;62515;52.758;5.076;2022-12-29T00:33:35;99741.88;;;10.03;100.00
74163;BME280;62515;52.758;5.076;2022-12-29T00:36:25;99743.97;;;9.99;100.00
74163;BME280;62515;52.758;5.076;2022-12-29T00:38:57;99737.38;;;9.93;100.00
74163;BME280;62515;52.758;5.076;2022-12-29T00:41:43;99726.47;;;9.96;100.00
74163;BME280;62515;52.758;5.076;2022-12-29T00:44:29;99732.06;;;9.93;100.00
74163;BME280;62515;52.758;5.076;2022-12-29T00:46:56;99719.16;;;9.89;100.00
74163;BME280;62515;52.758;5.076;2022-12-29T00:49:23;99725.59;;;9.86;100.00
74163;BME280;62515;52.758;5.076;2022-12-29T00:52:03;99718.47;;;9.87;100.00
74163;BME280;62515;52.758;5.076;2022-12-29T00:54:32;99717.31;;;9.80;100.00
74163;BME280;62515;52.758;5.076;2022-12-29T00:57:01;99705.97;;;9.78;100.00
74163;BME280;62515;52.758;5.076;2022-12-29T00:59:28;99701.78;;;9.75;100.00
74163;BME280;62515;52.758;5.076;2022-12-29T01:01:56;99704.81;;;9.71;100.00
74163;BME280;62515;52.758;5.076;2022-12-29T01:04:25;99692.50;;;9.70;100.00
74163;BME280;62515;52.758;5.076;2022-12-29T01:06:52;99696.25;;;9.67;100.00
74163;BME280;62515;52.758;5.076;2022-12-29T01:09:21;99691.53;;;9.71;100.00
74163;BME280;62515;52.758;5.076;2022-12-29T01:12:08;99699.50;;;9.71;100.00
74163;BME280;62515;52.758;5.076;2022-12-29T01:14:35;99682.97;;;9.67;100.00
74163;BME280;62515;52.758;5.076;2022-12-29T01:17:03;99673.19;;;9.68;100.00
74163;BME280;62515;52.758;5.076;2022-12-29T01:19:31;99682.97;;;9.67;100.00
74163;BME280;62515;52.758;5.076;2022-12-29T01:22:00;99676.13;;;9.65;100.00
74163;BME280;62515;52.758;5.076;2022-12-29T01:24:28;99675.28;;;9.64;100.00
74163;BME280;62515;52.758;5.076;2022-12-29T01:26:56;99675.09;;;9.56;100.00
74163;BME280;62515;52.758;5.076;2022-12-29T01:29:24;99668.22;;;9.54;100.00
74163;BME280;62515;52.758;5.076;2022-12-29T01:31:51;99668.22;;;9.54;100.00
74163;BME280;62515;52.758;5.076;2022-12-29T01:34:18;99658.72;;;9.51;100.00
74163;BME280;62515;52.758;5.076;2022-12-29T01:36:45;99652.69;;;9.49;100.00
74163;BME280;62515;52.758;5.076;2022-12-29T01:39:12;99666.31;;;9.56;100.00
74163;BME280;62515;52.758;5.076;2022-12-29T01:41:42;99656.63;;;9.55;100.00
74163;BME280;62515;52.758;5.076;2022-12-29T01:44:39;99673.53;;;9.54;100.00
74163;BME280;62515;52.758;5.076;2022-12-29T01:47:14;99683.72;;;9.49;100.00
74163;BME280;62515;52.758;5.076;2022-12-29T01:49:45;99682.28;;;9.44;100.00
74163;BME280;62515;52.758;5.076;2022-12-29T01:52:12;99689.69;;;9.41;100.00
74163;BME280;62515;52.758;5.076;2022-12-29T01:54:43;99708.41;;;9.39;100.00
74163;BME280;62515;52.758;5.076;2022-12-29T01:57:16;99684.75;;;9.36;100.00
74163;BME280;62515;52.758;5.076;2022-12-29T01:59:48;99680.81;;;9.31;100.00
74163;BME280;62515;52.758;5.076;2022-12-29T02:02:17;99674.06;;;9.27;100.00
74163;BME280;62515;52.758;5.076;2022-12-29T02:04:44;99682.19;;;9.25;100.00
74163;BME280;62515;52.758;5.076;2022-12-29T02:07:16;99683.28;;;9.23;100.00
74163;BME280;62515;52.758;5.076;2022-12-29T02:09:50;99677.72;;;9.26;100.00
74163;BME280;62515;52.758;5.076;2022-12-29T02:12:20;99683.66;;;9.39;100.00
74163;BME280;62515;52.758;5.076;2022-12-29T02:14:49;99666.94;;;9.48;100.00
74163;BME280;62515;52.758;5.076;2022-12-29T02:17:25;99647.50;;;9.48;100.00
74163;BME280;62515;52.758;5.076;2022-12-29T02:23:27;99674.59;;;9.41;100.00
74163;BME280;62515;52.758;5.076;2022-12-29T02:26:14;99660.41;;;9.31;100.00
74163;BME280;62515;52.758;5.076;2022-12-29T02:29:04;99659.97;;;9.26;100.00
74163;BME280;62515;52.758;5.076;2022-12-29T02:31:41;99661.56;;;9.18;100.00
74163;BME280;62515;52.758;5.076;2022-12-29T02:34:15;99616.97;;;9.12;100.00
74163;BME280;62515;52.758;5.076;2022-12-29T02:36:52;99650.53;;;9.13;100.00
74163;BME280;62515;52.758;5.076;2022-12-29T02:39:27;99653.19;;;9.13;100.00
74163;BME280;62515;52.758;5.076;2022-12-29T02:42:06;99651.47;;;9.12;100.00
74163;BME280;62515;52.758;5.076;2022-12-29T02:44:42;99652.91;;;9.16;100.00
74163;BME280;62515;52.758;5.076;2022-12-29T02:47:21;99653.63;;;9.18;100.00
74163;BME280;62515;52.758;5.076;2022-12-29T02:49:50;99655.31;;;9.19;100.00
74163;BME280;62515;52.758;5.076;2022-12-29T02:52:25;99642.03;;;9.19;100.00
74163;BME280;62515;52.758;5.076;2022-12-29T02:54:54;99645.91;;;9.15;100.00
74163;BME280;62515;52.758;5.076;2022-12-29T02:57:30;99646.38;;;9.20;100.00
74163;BME280;62515;52.758;5.076;2022-12-29T03:00:01;99647.47;;;9.17;100.00
74163;BME280;62515;52.758;5.076;2022-12-29T03:02:40;99644.94;;;9.16;100.00
74163;BME280;62515;52.758;5.076;2022-12-29T03:05:35;99644.09;;;9.15;100.00
74163;BME280;62515;52.758;5.076;2022-12-29T03:08:16;99640.44;;;9.07;100.00
74163;BME280;62515;52.758;5.076;2022-12-29T03:10:50;99640.69;;;9.04;100.00
74163;BME280;62515;52.758;5.076;2022-12-29T03:13:23;99643.97;;;8.96;100.00
74163;BME280;62515;52.758;5.076;2022-12-29T03:16:18;99650.19;;;9.06;100.00
74163;BME280;62515;52.758;5.076;2022-12-29T03:18:56;99630.31;;;9.01;100.00
74163;BME280;62515;52.758;5.076;2022-12-29T03:21:31;99657.09;;;8.98;100.00
74163;BME280;62515;52.758;5.076;2022-12-29T03:24:20;99651.97;;;8.85;100.00
74163;BME280;62515;52.758;5.076;2022-12-29T03:26:51;99653.22;;;8.81;100.00
74163;BME280;62515;52.758;5.076;2022-12-29T03:29:20;99642.28;;;8.74;100.00
74163;BME280;62515;52.758;5.076;2022-12-29T03:31:49;99645.88;;;8.73;100.00
74163;BME280;62515;52.758;5.076;2022-12-29T03:34:20;99655.22;;;8.68;100.00
74163;BME280;62515;52.758;5.076;2022-12-29T03:36:50;99647.38;;;8.66;100.00
74163;BME280;62515;52.758;5.076;2022-12-29T03:39:22;99650.72;;;8.68;100.00
74163;BME280;62515;52.758;5.076;2022-12-29T03:41:54;99653.00;;;8.73;100.00
74163;BME280;62515;52.758;5.076;2022-12-29T03:44:32;99664.28;;;8.54;100.00
74163;BME280;62515;52.758;5.076;2022-12-29T03:47:00;99664.66;;;8.50;100.00
74163;BME280;62515;52.758;5.076;2022-12-29T03:49:28;99651.75;;;8.56;100.00
74163;BME280;62515;52.758;5.076;2022-12-29T03:51:56;99663.34;;;8.44;100.00
74163;BME280;62515;52.758;5.076;2022-12-29T03:54:23;99668.16;;;8.50;100.00
74163;BME280;62515;52.758;5.076;2022-12-29T03:56:51;99661.63;;;8.54;100.00
74163;BME280;62515;52.758;5.076;2022-12-29T03:59:29;99668.59;;;8.66;100.00
74163;BME280;62515;52.758;5.076;2022-12-29T04:01:56;99665.22;;;8.64;100.00
74163;BME280;62515;52.758;5.076;2022-12-29T04:04:23;99666.63;;;8.68;100.00
74163;BME280;62515;52.758;5.076;2022-12-29T04:06:52;99664.13;;;8.67;100.00
74163;BME280;62515;52.758;5.076;2022-12-29T04:09:19;99667.88;;;8.64;100.00
74163;BME280;62515;52.758;5.076;2022-12-29T04:11:48;99655.06;;;8.69;100.00
74163;BME280;62515;52.758;5.076;2022-12-29T04:14:15;99655.78;;;8.71;100.00
74163;BME280;62515;52.758;5.076;2022-12-29T04:16:43;99652.41;;;8.69;100.00
74163;BME280;62515;52.758;5.076;2022-12-29T04:19:11;99658.19;;;8.74;100.00
74163;BME280;62515;52.758;5.076;2022-12-29T04:21:38;99642.69;;;8.90;100.00
74163;BME280;62515;52.758;5.076;2022-12-29T04:24:07;99646.88;;;8.93;100.00
74163;BME280;62515;52.758;5.076;2022-12-29T04:26:38;99658.94;;;8.97;100.00
74163;BME280;62515;52.758;5.076;2022-12-29T04:29:20;99645.44;;;8.89;100.00
74163;BME280;62515;52.758;5.076;2022-12-29T04:32:22;99648.00;;;8.90;100.00
74163;BME280;62515;52.758;5.076;2022-12-29T04:34:51;99652.56;;;8.88;100.00
74163;BME280;62515;52.758;5.076;2022-12-29T04:37:18;99646.75;;;8.94;100.00
74163;BME280;62515;52.758;5.076;2022-12-29T04:39:47;99648.75;;;9.02;100.00
74163;BME280;62515;52.758;5.076;2022-12-29T04:42:14;99656.84;;;9.01;100.00
74163;BME280;62515;52.758;5.076;2022-12-29T04:44:42;99661.44;;;8.99;100.00
74163;BME280;62515;52.758;5.076;2022-12-29T04:47:21;99650.25;;;8.95;100.00
74163;BME280;62515;52.758;5.076;2022-12-29T04:50:04;99668.69;;;8.97;100.00
74163;BME280;62515;52.758;5.076;2022-12-29T04:52:57;99672.28;;;9.07;100.00
74163;BME280;62515;52.758;5.076;2022-12-29T04:55:27;99674.19;;;9.05;100.00
74163;BME280;62515;52.758;5.076;2022-12-29T04:57:54;99670.84;;;9.03;100.00
74163;BME280;62515;52.758;5.076;2022-12-29T05:00:21;99681.31;;;9.04;100.00
74163;BME280;62515;52.758;5.076;2022-12-29T05:02:48;99673.59;;;9.01;100.00
74163;BME280;62515;52.758;5.076;2022-12-29T05:05:16;99688.94;;;8.98;100.00
74163;BME280;62515;52.758;5.076;2022-12-29T05:07:46;99681.44;;;9.03;100.00
74163;BME280;62515;52.758;5.076;2022-12-29T05:10:13;99687.53;;;8.93;100.00
74163;BME280;62515;52.758;5.076;2022-12-29T05:12:42;99681.66;;;8.79;100.00
74163;BME280;62515;52.758;5.076;2022-12-29T05:15:11;99685.16;;;8.79;100.00
74163;BME280;62515;52.758;5.076;2022-12-29T05:17:38;99700.13;;;8.80;100.00
74163;BME280;62515;52.758;5.076;2022-12-29T05:20:08;99689.72;;;8.88;100.00
74163;BME280;62515;52.758;5.076;2022-12-29T05:22:36;99682.41;;;8.81;100.00
74163;BME280;62515;52.758;5.076;2022-12-29T05:25:05;99696.00;;;8.87;100.00
74163;BME280;62515;52.758;5.076;2022-12-29T05:27:40;99697.88;;;8.97;100.00
74163;BME280;62515;52.758;5.076;2022-12-29T05:30:16;99677.19;;;8.90;100.00
74163;BME280;62515;52.758;5.076;2022-12-29T05:32:43;99685.59;;;8.96;100.00
74163;BME280;62515;52.758;5.076;2022-12-29T05:35:10;99690.53;;;9.00;100.00
74163;BME280;62515;52.758;5.076;2022-12-29T05:37:38;99708.75;;;8.93;100.00
74163;BME280;62515;52.758;5.076;2022-12-29T05:40:07;99705.38;;;8.91;100.00
74163;BME280;62515;52.758;5.076;2022-12-29T05:42:34;99710.34;;;8.85;100.00
74163;BME280;62515;52.758;5.076;2022-12-29T05:45:32;99702.28;;;8.86;100.00
74163;BME280;62515;52.758;5.076;2022-12-29T05:48:12;99704.94;;;8.86;100.00
74163;BME280;62515;52.758;5.076;2022-12-29T05:50:57;99704.94;;;8.86;100.00
74163;BME280;62515;52.758;5.076;2022-12-29T05:53:35;99700.81;;;8.93;100.00
74163;BME280;62515;52.758;5.076;2022-12-29T05:56:03;99702.72;;;8.91;100.00
74163;BME280;62515;52.758;5.076;2022-12-29T05:58:31;99702.53;;;8.83;100.00
74163;BME280;62515;52.758;5.076;2022-12-29T06:01:00;99705.88;;;8.85;100.00
74163;BME280;62515;52.758;5.076;2022-12-29T06:03:27;99710.22;;;8.86;100.00
74163;BME280;62515;52.758;5.076;2022-12-29T06:05:56;99727.44;;;8.92;100.00
74163;BME280;62515;52.758;5.076;2022-12-29T06:08:23;99723.25;;;8.89;100.00
74163;BME280;62515;52.758;5.076;2022-12-29T06:10:50;99725.75;;;8.91;100.00
74163;BME280;62515;52.758;5.076;2022-12-29T06:13:17;99730.09;;;8.92;100.00
74163;BME280;62515;52.758;5.076;2022-12-29T06:15:48;99737.44;;;9.00;100.00
74163;BME280;62515;52.758;5.076;2022-12-29T06:18:17;99716.91;;;9.02;100.00
74163;BME280;62515;52.758;5.076;2022-12-29T06:20:46;99727.53;;;9.02;100.00
74163;BME280;62515;52.758;5.076;2022-12-29T06:23:15;99737.44;;;9.00;100.00
74163;BME280;62515;52.758;5.076;2022-12-29T06:25:43;99739.59;;;8.94;100.00
74163;BME280;62515;52.758;5.076;2022-12-29T06:28:12;99736.84;;;8.96;100.00
74163;BME280;62515;52.758;5.076;2022-12-29T06:30:39;99735.75;;;8.99;100.00
74163;BME280;62515;52.758;5.076;2022-12-29T06:33:06;99739.34;;;8.98;100.00
74163;BME280;62515;52.758;5.076;2022-12-29T06:35:36;99729.72;;;8.97;100.00
74163;BME280;62515;52.758;5.076;2022-12-29T06:38:03;99722.53;;;8.87;100.00
74163;BME280;62515;52.758;5.076;2022-12-29T06:40:31;99736.69;;;8.98;100.00
74163;BME280;62515;52.758;5.076;2022-12-29T06:43:15;99730.94;;;8.92;100.00
74163;BME280;62515;52.758;5.076;2022-12-29T06:45:55;99733.84;;;8.89;100.00
74163;BME280;62515;52.758;5.076;2022-12-29T06:48:22;99738.81;;;8.83;100.00
74163;BME280;62515;52.758;5.076;2022-12-29T06:50:51;99742.44;;;8.82;100.00
74163;BME280;62515;52.758;5.076;2022-12-29T06:53:18;99742.06;;;8.86;100.00
74163;BME280;62515;52.758;5.076;2022-12-29T06:55:45;99732.41;;;8.85;100.00
74163;BME280;62515;52.758;5.076;2022-12-29T06:58:12;99751.84;;;8.86;100.00
74163;BME280;62515;52.758;5.076;2022-12-29T07:00:38;99744.56;;;8.88;100.00
74163;BME280;62515;52.758;5.076;2022-12-29T07:03:06;99733.88;;;8.78;100.00
74163;BME280;62515;52.758;5.076;2022-12-29T07:05:33;99733.19;;;8.65;100.00
74163;BME280;62515;52.758;5.076;2022-12-29T07:08:01;99732.47;;;8.63;100.00
74163;BME280;62515;52.758;5.076;2022-12-29T07:10:28;99728.53;;;8.58;100.00
74163;BME280;62515;52.758;5.076;2022-12-29T07:12:56;99719.63;;;8.48;100.00
74163;BME280;62515;52.758;5.076;2022-12-29T07:15:23;99728.03;;;8.53;100.00
74163;BME280;62515;52.758;5.076;2022-12-29T07:17:50;99731.78;;;8.50;100.00
74163;BME280;62515;52.758;5.076;2022-12-29T07:20:17;99727.19;;;8.52;100.00
74163;BME280;62515;52.758;5.076;2022-12-29T07:22:52;99727.28;;;8.62;100.00
74163;BME280;62515;52.758;5.076;2022-12-29T07:25:20;99728.72;;;8.66;100.00
74163;BME280;62515;52.758;5.076;2022-12-29T07:27:47;99742.34;;;8.72;100.00
74163;BME280;62515;52.758;5.076;2022-12-29T07:30:15;99738.00;;;8.71;100.00
74163;BME280;62515;52.758;5.076;2022-12-29T07:32:43;99744.03;;;8.73;100.00
74163;BME280;62515;52.758;5.076;2022-12-29T07:35:09;99737.63;;;8.76;100.00
74163;BME280;62515;52.758;5.076;2022-12-29T07:37:37;99728.72;;;8.77;100.00
74163;BME280;62515;52.758;5.076;2022-12-29T07:40:04;99738.94;;;8.81;100.00
74163;BME280;62515;52.758;5.076;2022-12-29T07:42:33;99728.81;;;8.86;100.00
74163;BME280;62515;52.758;5.076;2022-12-29T07:45:00;99737.72;;;8.85;100.00
74163;BME280;62515;52.758;5.076;2022-12-29T07:47:35;99756.78;;;8.90;100.00
74163;BME280;62515;52.758;5.076;2022-12-29T07:50:03;99737.44;;;9.00;100.00
74163;BME280;62515;52.758;5.076;2022-12-29T07:52:30;99743.78;;;9.08;100.00
74163;BME280;62515;52.758;5.076;2022-12-29T07:54:57;99740.53;;;9.05;100.00
74163;BME280;62515;52.758;5.076;2022-12-29T07:57:24;99729.66;;;9.08;100.00
74163;BME280;62515;52.758;5.076;2022-12-29T07:59:59;99737.13;;;9.14;100.00
74163;BME280;62515;52.758;5.076;2022-12-29T08:02:26;99745.81;;;9.16;100.00
74163;BME280;62515;52.758;5.076;2022-12-29T08:04:53;99748.00;;;9.11;100.00
74163;BME280;62515;52.758;5.076;2022-12-29T08:07:20;99759.59;;;9.10;100.00
74163;BME280;62515;52.758;5.076;2022-12-29T08:09:47;99743.59;;;9.21;100.00
74163;BME280;62515;52.758;5.076;2022-12-29T08:12:14;99752.09;;;9.15;100.00
74163;BME280;62515;52.758;5.076;2022-12-29T08:14:41;99766.19;;;9.15;100.00
74163;BME280;62515;52.758;5.076;2022-12-29T08:17:09;99753.63;;;9.17;100.00
74163;BME280;62515;52.758;5.076;2022-12-29T08:19:37;99759.44;;;9.11;100.00
74163;BME280;62515;52.758;5.076;2022-12-29T08:22:03;99751.63;;;9.10;100.00
74163;BME280;62515;52.758;5.076;2022-12-29T08:24:30;99755.75;;;9.03;100.00
74163;BME280;62515;52.758;5.076;2022-12-29T08:26:57;99769.13;;;9.01;100.00
74163;BME280;62515;52.758;5.076;2022-12-29T08:29:32;99763.84;;;9.01;100.00
74163;BME280;62515;52.758;5.076;2022-12-29T08:31:59;99748.41;;;8.95;100.00
74163;BME280;62515;52.758;5.076;2022-12-29T08:34:27;99772.63;;;9.02;100.00
74163;BME280;62515;52.758;5.076;2022-12-29T08:36:54;99770.00;;;9.02;100.00
74163;BME280;62515;52.758;5.076;2022-12-29T08:39:21;99773.84;;;8.98;100.00
74163;BME280;62515;52.758;5.076;2022-12-29T08:41:48;99770.94;;;9.01;100.00
74163;BME280;62515;52.758;5.076;2022-12-29T08:44:16;99771.44;;;9.06;100.00
74163;BME280;62515;52.758;5.076;2022-12-29T08:46:43;99770.16;;;8.89;100.00
74163;BME280;62515;52.758;5.076;2022-12-29T08:49:10;99772.72;;;8.68;100.00
74163;BME280;62515;52.758;5.076;2022-12-29T08:51:38;99786.97;;;8.56;100.00
74163;BME280;62515;52.758;5.076;2022-12-29T08:54:05;99788.41;;;8.60;100.00
74163;BME280;62515;52.758;5.076;2022-12-29T08:56:33;99797.22;;;8.61;100.00
74163;BME280;62515;52.758;5.076;2022-12-29T08:59:00;99804.78;;;8.65;100.00
74163;BME280;62515;52.758;5.076;2022-12-29T09:01:29;99803.63;;;8.58;100.00
74163;BME280;62515;52.758;5.076;2022-12-29T09:03:57;99788.53;;;8.59;100.00
74163;BME280;62515;52.758;5.076;2022-12-29T09:06:45;99817.47;;;8.51;100.00
74163;BME280;62515;52.758;5.076;2022-12-29T09:09:13;99810.47;;;8.50;100.00
74163;BME280;62515;52.758;5.076;2022-12-29T09:11:40;99803.28;;;8.52;100.00
74163;BME280;62515;52.758;5.076;2022-12-29T09:14:07;99821.44;;;8.56;100.00
74163;BME280;62515;52.758;5.076;2022-12-29T09:16:35;99824.84;;;8.58;100.00
74163;BME280;62515;52.758;5.076;2022-12-29T09:19:04;99817.84;;;8.46;100.00
74163;BME280;62515;52.758;5.076;2022-12-29T09:21:31;99832.78;;;8.36;100.00
74163;BME280;62515;52.758;5.076;2022-12-29T09:24:00;99840.97;;;8.33;100.00
74163;BME280;62515;52.758;5.076;2022-12-29T09:26:27;99844.84;;;8.29;100.00
74163;BME280;62515;52.758;5.076;2022-12-29T09:28:54;99848.44;;;8.39;100.00
74163;BME280;62515;52.758;5.076;2022-12-29T09:31:23;99847.38;;;8.42;100.00
74163;BME280;62515;52.758;5.076;2022-12-29T09:33:51;99850.88;;;8.42;100.00
74163;BME280;62515;52.758;5.076;2022-12-29T09:36:19;99866.31;;;8.48;100.00
74163;BME280;62515;52.758;5.076;2022-12-29T09:38:45;99879.94;;;8.55;100.00
74163;BME280;62515;52.758;5.076;2022-12-29T09:41:18;99878.59;;;8.60;100.00
74163;BME280;62515;52.758;5.076;2022-12-29T09:43:59;99883.63;;;8.52;100.00
74163;BME280;62515;52.758;5.076;2022-12-29T09:46:34;99892.81;;;8.48;100.00
74163;BME280;62515;52.758;5.076;2022-12-29T09:49:11;99898.00;;;8.38;100.00
74163;BME280;62515;52.758;5.076;2022-12-29T09:51:43;99910.16;;;8.41;100.00
74163;BME280;62515;52.758;5.076;2022-12-29T09:54:36;99908.72;;;8.59;100.00
74163;BME280;62515;52.758;5.076;2022-12-29T09:57:13;99906.53;;;8.53;100.00
74163;BME280;62515;52.758;5.076;2022-12-29T09:59:40;99927.38;;;8.47;100.00
74163;BME280;62515;52.758;5.076;2022-12-29T10:02:20;99935.72;;;8.42;100.00
74163;BME280;62515;52.758;5.076;2022-12-29T10:04:48;99929.66;;;8.40;100.00
74163;BME280;62515;52.758;5.076;2022-12-29T10:07:26;99932.94;;;8.44;100.00
74163;BME280;62515;52.758;5.076;2022-12-29T10:10:03;99944.63;;;8.41;100.00
74163;BME280;62515;52.758;5.076;2022-12-29T10:12:49;99948.63;;;8.91;100.00
74163;BME280;62515;52.758;5.076;2022-12-29T10:15:30;99953.28;;;9.43;100.00
74163;BME280;62515;52.758;5.076;2022-12-29T10:18:11;99941.09;;;9.83;100.00
74163;BME280;62515;52.758;5.076;2022-12-29T10:20:50;99947.97;;;9.86;100.00
74163;BME280;62515;52.758;5.076;2022-12-29T10:23:26;99964.16;;;9.83;100.00
74163;BME280;62515;52.758;5.076;2022-12-29T10:25:55;99967.97;;;10.01;100.00
74163;BME280;62515;52.758;5.076;2022-12-29T10:28:34;99984.03;;;9.99;100.00
74163;BME280;62515;52.758;5.076;2022-12-29T10:31:05;99981.03;;;10.25;99.35
74163;BME280;62515;52.758;5.076;2022-12-29T10:33:37;99985.41;;;10.46;99.51
74163;BME280;62515;52.758;5.076;2022-12-29T10:36:13;99979.91;;;10.59;96.90
74163;BME280;62515;52.758;5.076;2022-12-29T10:38:49;99980.75;;;10.39;98.14
74163;BME280;62515;52.758;5.076;2022-12-29T10:41:23;99982.81;;;10.04;98.29
74163;BME280;62515;52.758;5.076;2022-12-29T10:43:56;99982.16;;;10.11;97.85
74163;BME280;62515;52.758;5.076;2022-12-29T10:46:28;99993.59;;;10.34;96.99
74163;BME280;62515;52.758;5.076;2022-12-29T10:48:56;99996.38;;;10.53;95.35
74163;BME280;62515;52.758;5.076;2022-12-29T10:51:25;100014.69;;;10.46;94.88
74163;BME280;62515;52.758;5.076;2022-12-29T10:53:53;100004.06;;;10.04;96.03
74163;BME280;62515;52.758;5.076;2022-12-29T10:56:29;100014.59;;;9.51;99.08
74163;BME280;62515;52.758;5.076;2022-12-29T10:59:13;100025.22;;;9.40;100.00
74163;BME280;62515;52.758;5.076;2022-12-29T11:01:49;100030.41;;;9.08;100.00
74163;BME280;62515;52.758;5.076;2022-12-29T11:04:29;100028.09;;;8.81;100.00
74163;BME280;62515;52.758;5.076;2022-12-29T11:07:01;100046.69;;;8.92;100.00
74163;BME280;62515;52.758;5.076;2022-12-29T11:09:29;100050.19;;;9.04;100.00
74163;BME280;62515;52.758;5.076;2022-12-29T11:12:22;100049.88;;;9.20;100.00
74163;BME280;62515;52.758;5.076;2022-12-29T11:15:11;100056.00;;;9.09;100.00
74163;BME280;62515;52.758;5.076;2022-12-29T11:17:46;100053.22;;;9.44;100.00
74163;BME280;62515;52.758;5.076;2022-12-29T11:20:33;100051.88;;;10.26;97.46
74163;BME280;62515;52.758;5.076;2022-12-29T11:23:04;100073.78;;;10.18;96.74
74163;BME280;62515;52.758;5.076;2022-12-29T11:25:32;100068.94;;;10.23;95.97
74163;BME280;62515;52.758;5.076;2022-12-29T11:28:01;100046.19;;;10.51;95.14
74163;BME280;62515;52.758;5.076;2022-12-29T11:30:31;100077.50;;;10.79;94.92
74163;BME280;62515;52.758;5.076;2022-12-29T11:32:58;100086.72;;;10.75;94.89
74163;BME280;62515;52.758;5.076;2022-12-29T11:35:31;100073.72;;;10.61;93.83
74163;BME280;62515;52.758;5.076;2022-12-29T11:38:00;100080.72;;;10.83;93.38
74163;BME280;62515;52.758;5.076;2022-12-29T11:40:29;100086.19;;;10.81;93.18
74163;BME280;62515;52.758;5.076;2022-12-29T11:42:58;100091.38;;;11.03;91.10
74163;BME280;62515;52.758;5.076;2022-12-29T11:45:34;100098.53;;;10.82;91.55
74163;BME280;62515;52.758;5.076;2022-12-29T11:48:07;100101.97;;;10.94;91.43
74163;BME280;62515;52.758;5.076;2022-12-29T11:50:38;100112.25;;;10.46;94.55
74163;BME280;62515;52.758;5.076;2022-12-29T11:53:14;100123.81;;;10.13;95.84
74163;BME280;62515;52.758;5.076;2022-12-29T11:55:51;100122.41;;;10.41;94.92
74163;BME280;62515;52.758;5.076;2022-12-29T11:58:18;100119.03;;;9.74;96.58
74163;BME280;62515;52.758;5.076;2022-12-29T12:00:48;100132.91;;;9.55;99.24
74163;BME280;62515;52.758;5.076;2022-12-29T12:03:18;100134.47;;;9.46;100.00
74163;BME280;62515;52.758;5.076;2022-12-29T12:05:48;100133.97;;;9.53;99.11
74163;BME280;62515;52.758;5.076;2022-12-29T12:08:30;100127.59;;;9.44;97.86
74163;BME280;62515;52.758;5.076;2022-12-29T12:11:06;100131.69;;;9.37;99.15
74163;BME280;62515;52.758;5.076;2022-12-29T12:13:38;100129.41;;;9.32;99.50
74163;BME280;62515;52.758;5.076;2022-12-29T12:16:14;100125.31;;;9.39;99.82
74163;BME280;62515;52.758;5.076;2022-12-29T12:18:47;100138.97;;;9.46;99.46
74163;BME280;62515;52.758;5.076;2022-12-29T12:21:23;100137.72;;;9.50;99.54
74163;BME280;62515;52.758;5.076;2022-12-29T12:24:20;100145.47;;;9.42;99.32
74163;BME280;62515;52.758;5.076;2022-12-29T12:26:58;100151.13;;;9.37;99.16
74163;BME280;62515;52.758;5.076;2022-12-29T12:29:34;100156.66;;;9.34;100.00
74163;BME280;62515;52.758;5.076;2022-12-29T12:32:12;100159.69;;;9.41;100.00
74163;BME280;62515;52.758;5.076;2022-12-29T12:34:45;100162.63;;;9.71;99.52
74163;BME280;62515;52.758;5.076;2022-12-29T12:37:37;100159.97;;;9.71;97.79
74163;BME280;62515;52.758;5.076;2022-12-29T12:43:23;100174.03;;;9.27;99.12
74163;BME280;62515;52.758;5.076;2022-12-29T12:46:03;100175.88;;;8.92;100.00
74163;BME280;62515;52.758;5.076;2022-12-29T12:48:48;100188.91;;;8.95;100.00
74163;BME280;62515;52.758;5.076;2022-12-29T12:51:26;100186.88;;;8.99;100.00
74163;BME280;62515;52.758;5.076;2022-12-29T12:54:16;100185.22;;;9.09;100.00
74163;BME280;62515;52.758;5.076;2022-12-29T12:57:02;100174.88;;;9.17;100.00
74163;BME280;62515;52.758;5.076;2022-12-29T12:59:49;100191.19;;;9.34;100.00
74163;BME280;62515;52.758;5.076;2022-12-29T13:02:29;100188.28;;;9.26;99.88
74163;BME280;62515;52.758;5.076;2022-12-29T13:08:23;100195.91;;;8.96;100.00
74163;BME280;62515;52.758;5.076;2022-12-29T13:11:01;100199.88;;;8.90;100.00
74163;BME280;62515;52.758;5.076;2022-12-29T13:13:39;100198.06;;;8.91;100.00
74163;BME280;62515;52.758;5.076;2022-12-29T13:16:15;100192.75;;;8.91;100.00
74163;BME280;62515;52.758;5.076;2022-12-29T13:18:50;100202.53;;;8.90;100.00
74163;BME280;62515;52.758;5.076;2022-12-29T13:21:29;100199.66;;;8.93;100.00
74163;BME280;62515;52.758;5.076;2022-12-29T13:24:03;100204.81;;;8.95;100.00
74163;BME280;62515;52.758;5.076;2022-12-29T13:26:42;100215.69;;;8.92;100.00
74163;BME280;62515;52.758;5.076;2022-12-29T13:29:15;100223.75;;;8.90;100.00
74163;BME280;62515;52.758;5.076;2022-12-29T13:31:50;100216.75;;;8.89;100.00
74163;BME280;62515;52.758;5.076;2022-12-29T13:34:26;100230.88;;;8.90;100.00
74163;BME280;62515;52.758;5.076;2022-12-29T13:37:01;100225.91;;;8.85;100.00